Time;durP1;ratioP1;P1;durP2;ratioP2;P2;SDS_P1;SDS_P2;PMS_P1;PMS_P2;Temp;Humidity;BMP_temperature;BMP_pressure;BME280_temperature;BME280_humidity;BME280_pressure;Samples;Min_cycle;Max_cycle;Signal;HPM_P1;HPM_P2
2023/08/18 00:01:05;;;;;;;6.05;4.70;;;;;;;17.48;92.97;101674.13;5054607;28;20055;-92
2023/08/18 00:03:30;;;;;;;6.30;4.82;;;;;;;17.47;93.16;101675.03;5050017;28;20036;-92
2023/08/18 00:05:56;;;;;;;6.28;4.85;;;;;;;17.47;92.82;101672.41;5047396;28;20441;-91
2023/08/18 00:08:21;;;;;;;5.57;4.55;;;;;;;17.47;92.99;101680.31;5039306;28;20033;-93
2023/08/18 00:10:46;;;;;;;5.85;4.47;;;;;;;17.46;92.90;101682.09;5053060;28;20082;-92
2023/08/18 00:13:14;;;;;;;6.00;4.40;;;;;;;17.45;93.06;101672.50;5050181;28;20097;-92
2023/08/18 00:15:39;;;;;;;6.38;4.78;;;;;;;17.42;93.00;101673.44;5045733;28;20029;-92
2023/08/18 00:18:04;;;;;;;6.10;5.13;;;;;;;17.42;93.16;101672.59;5053279;28;20029;-93
2023/08/18 00:20:30;;;;;;;6.45;5.00;;;;;;;17.39;92.59;101676.22;5051580;28;20033;-92
2023/08/18 00:22:55;;;;;;;6.55;4.75;;;;;;;17.38;92.91;101673.66;5050940;28;20021;-92
2023/08/18 00:25:21;;;;;;;6.60;5.10;;;;;;;17.36;92.65;101676.34;5050864;28;20037;-92
2023/08/18 00:27:46;;;;;;;6.10;4.88;;;;;;;17.36;92.84;101671.09;5052200;28;20501;-92
2023/08/18 00:30:11;;;;;;;7.55;4.88;;;;;;;17.36;92.80;101667.59;5052322;28;20025;-92
2023/08/18 00:32:37;;;;;;;6.85;4.95;;;;;;;17.36;93.09;101665.84;5051254;28;20024;-92
2023/08/18 00:35:02;;;;;;;5.75;4.82;;;;;;;17.37;92.99;101671.94;5047574;28;20017;-93
2023/08/18 00:37:28;;;;;;;9.05;5.35;;;;;;;17.37;93.41;101670.19;5050509;28;20111;-92
2023/08/18 00:39:53;;;;;;;6.78;5.07;;;;;;;17.36;93.19;101676.34;5052960;28;20488;-93
2023/08/18 00:42:18;;;;;;;5.60;4.63;;;;;;;17.35;92.82;101672.00;5045983;28;20029;-94
2023/08/18 00:44:44;;;;;;;7.00;5.03;;;;;;;17.36;93.35;101672.84;5052055;28;20345;-93
2023/08/18 00:47:09;;;;;;;6.38;4.65;;;;;;;17.36;93.16;101675.47;5052543;28;20033;-92
2023/08/18 00:49:34;;;;;;;6.00;4.45;;;;;;;17.36;93.23;101676.34;5051992;28;20036;-92
2023/08/18 00:52:01;;;;;;;5.40;4.85;;;;;;;17.35;93.52;101672.00;5052340;28;20029;-92
2023/08/18 00:54:27;;;;;;;6.80;5.15;;;;;;;17.33;93.31;101668.59;5052314;28;20135;-93
2023/08/18 00:56:53;;;;;;;6.57;4.88;;;;;;;17.33;93.20;101665.94;5049154;28;20032;-92
2023/08/18 00:59:19;;;;;;;6.82;4.97;;;;;;;17.32;92.91;101666.88;5050267;28;20039;-92
2023/08/18 01:01:44;;;;;;;6.05;5.00;;;;;;;17.31;92.90;101667.78;5051541;28;20024;-93
2023/08/18 01:04:12;;;;;;;6.18;4.50;;;;;;;17.30;93.25;101655.56;5049029;28;20028;-92
2023/08/18 01:06:38;;;;;;;5.55;4.55;;;;;;;17.31;93.09;101664.31;5042893;28;20021;-92
2023/08/18 01:09:04;;;;;;;5.60;4.55;;;;;;;17.29;93.52;101652.09;5066820;28;20052;-92
2023/08/18 01:11:43;;;;;;;6.03;4.82;;;;;;;17.30;92.95;101658.19;5066584;28;20432;-93
2023/08/18 01:14:21;;;;;;;5.60;4.57;;;;;;;17.28;93.19;101655.63;5049095;28;20115;-93
2023/08/18 01:16:54;;;;;;;5.63;4.43;;;;;;;17.27;92.79;101656.53;5050859;28;20071;-93
2023/08/18 01:19:21;;;;;;;5.80;4.72;;;;;;;17.25;93.11;101654.91;5051276;28;20037;-93
2023/08/18 01:21:51;;;;;;;5.95;4.78;;;;;;;17.22;92.95;101649.78;5051788;28;20107;-92
2023/08/18 01:24:17;;;;;;;7.25;5.00;;;;;;;17.20;92.82;101651.59;5049848;28;20032;-92
2023/08/18 01:26:42;;;;;;;5.90;4.63;;;;;;;17.18;92.78;101643.75;5050092;28;20415;-85
2023/08/18 01:29:07;;;;;;;6.00;4.88;;;;;;;17.18;92.46;101638.50;5070481;28;20080;-91
2023/08/18 01:31:35;;;;;;;5.90;4.70;;;;;;;17.15;92.64;101636.03;5060208;28;20242;-93
2023/08/18 01:34:04;;;;;;;5.85;4.68;;;;;;;17.12;92.55;101629.09;5050386;28;20020;-92
2023/08/18 01:36:34;;;;;;;5.40;4.55;;;;;;;17.11;92.80;101627.38;5050106;28;20510;-93
2023/08/18 01:39:01;;;;;;;6.72;5.07;;;;;;;17.10;92.92;101630.94;5051701;28;20087;-93
2023/08/18 01:41:27;;;;;;;6.57;5.20;;;;;;;17.10;92.80;101635.34;5052625;28;20057;-93
2023/08/18 01:43:53;;;;;;;6.50;4.97;;;;;;;17.09;92.84;101634.47;5052770;28;20090;-93
2023/08/18 01:46:18;;;;;;;6.68;4.80;;;;;;;17.08;93.08;101638.00;5051332;28;20108;-93
2023/08/18 01:48:43;;;;;;;6.30;5.13;;;;;;;17.09;93.00;101629.22;5052787;28;20021;-93
2023/08/18 01:51:09;;;;;;;7.47;5.05;;;;;;;17.07;92.73;101630.19;5052543;28;20028;-92
2023/08/18 01:53:34;;;;;;;6.05;4.80;;;;;;;17.06;93.06;101628.50;5052560;28;20111;-91
2023/08/18 01:56:00;;;;;;;7.00;5.50;;;;;;;17.05;92.96;101626.78;5040021;28;20037;-93
2023/08/18 01:58:26;;;;;;;6.55;5.38;;;;;;;17.05;93.31;101621.53;5039602;28;20086;-93
2023/08/18 02:00:54;;;;;;;6.45;4.93;;;;;;;17.03;93.04;101620.72;5052036;28;20033;-92
2023/08/18 02:03:20;;;;;;;7.57;5.10;;;;;;;17.00;92.76;101613.81;5032706;28;20048;-92
2023/08/18 02:05:47;;;;;;;7.63;5.47;;;;;;;16.99;93.11;101614.75;5045348;28;20050;-92
2023/08/18 02:08:13;;;;;;;6.90;5.05;;;;;;;16.97;93.13;101613.94;5045018;28;20507;-92
2023/08/18 02:10:38;;;;;;;7.63;5.35;;;;;;;16.95;92.93;101610.53;5051920;28;20025;-93
2023/08/18 02:13:03;;;;;;;7.57;5.65;;;;;;;16.94;93.19;101612.28;5049098;28;20488;-93
2023/08/18 02:15:29;;;;;;;7.00;5.47;;;;;;;16.92;93.18;101610.59;5040536;28;20029;-92
2023/08/18 02:17:54;;;;;;;6.50;5.00;;;;;;;16.92;93.47;101610.59;5051211;28;20464;-92
2023/08/18 02:20:20;;;;;;;7.55;5.28;;;;;;;16.91;93.50;101608.91;5048510;28;20407;-93
2023/08/18 02:22:45;;;;;;;7.03;5.50;;;;;;;16.92;93.19;101607.97;5047535;28;20115;-91
2023/08/18 02:25:10;;;;;;;7.30;5.30;;;;;;;16.91;93.12;101614.19;5055574;28;20025;-92
2023/08/18 02:27:35;;;;;;;6.97;5.53;;;;;;;16.90;93.12;101609.84;5040084;28;20528;-93
2023/08/18 02:30:01;;;;;;;7.38;5.55;;;;;;;16.90;93.33;101615.09;5045262;28;20025;-92
2023/08/18 02:32:26;;;;;;;7.22;5.43;;;;;;;16.90;93.68;101613.31;5048474;28;20436;-92
2023/08/18 02:34:52;;;;;;;7.90;5.60;;;;;;;16.88;93.64;101606.41;5052556;28;20017;-93
2023/08/18 02:37:17;;;;;;;7.47;5.57;;;;;;;16.86;93.38;101608.25;5049240;28;20025;-93
2023/08/18 02:39:42;;;;;;;7.57;5.80;;;;;;;16.83;93.77;101602.19;5047094;28;20021;-93
2023/08/18 02:42:08;;;;;;;8.35;5.78;;;;;;;16.80;93.32;101602.31;5049210;28;20033;-92
2023/08/18 02:44:33;;;;;;;7.32;5.63;;;;;;;16.80;93.20;101604.94;5053156;28;20452;-92
2023/08/18 02:46:58;;;;;;;7.20;5.65;;;;;;;16.80;93.49;101607.56;5054628;28;20029;-92
2023/08/18 02:49:24;;;;;;;6.88;5.30;;;;;;;16.80;93.39;101607.56;5052771;28;20460;-94
2023/08/18 02:51:49;;;;;;;8.23;5.78;;;;;;;16.80;93.69;101606.72;5050324;28;20029;-92
2023/08/18 02:54:14;;;;;;;7.00;5.30;;;;;;;16.77;93.63;101602.41;5044734;28;20469;-93
2023/08/18 02:56:39;;;;;;;7.70;5.63;;;;;;;16.76;93.65;101611.22;5052918;28;20052;-93
2023/08/18 02:59:05;;;;;;;7.80;5.40;;;;;;;16.75;93.42;101606.88;5051128;28;20082;-93
2023/08/18 03:01:30;;;;;;;7.68;6.15;;;;;;;16.73;93.05;101606.09;5051325;28;20510;-92
2023/08/18 03:03:55;;;;;;;8.77;6.32;;;;;;;16.70;93.36;101600.97;5054596;28;20102;-91
2023/08/18 03:06:21;;;;;;;8.88;5.75;;;;;;;16.67;93.75;101604.56;5054935;28;20021;-92
2023/08/18 03:08:46;;;;;;;7.90;6.03;;;;;;;16.66;93.21;101594.13;5054765;28;20052;-93
2023/08/18 03:11:11;;;;;;;7.63;5.60;;;;;;;16.64;93.37;101602.06;5043670;28;20021;-93
2023/08/18 03:13:37;;;;;;;7.43;5.63;;;;;;;16.64;93.78;101593.31;5052923;28;20526;-93
2023/08/18 03:16:04;;;;;;;6.90;5.35;;;;;;;16.63;93.78;101599.47;5046552;28;20036;-92
2023/08/18 03:18:29;;;;;;;7.63;5.68;;;;;;;16.63;93.76;101603.00;5052704;28;20082;-93
2023/08/18 03:20:59;;;;;;;7.60;5.82;;;;;;;16.63;93.53;101604.75;5046812;28;20025;-92
2023/08/18 03:23:25;;;;;;;6.65;5.45;;;;;;;16.63;93.47;101604.75;5053077;28;20037;-93
2023/08/18 03:25:50;;;;;;;7.65;5.63;;;;;;;16.63;93.87;101602.13;5053325;28;20075;-92
2023/08/18 03:28:15;;;;;;;7.78;5.85;;;;;;;16.62;94.05;101605.66;5052564;28;20036;-91
2023/08/18 03:30:41;;;;;;;7.88;5.85;;;;;;;16.62;93.67;101603.91;5054238;28;20044;-93
2023/08/18 03:33:07;;;;;;;7.68;6.03;;;;;;;16.61;93.82;101602.19;5053370;28;20365;-93
2023/08/18 03:35:35;;;;;;;7.50;5.55;;;;;;;16.62;93.86;101603.91;5045218;28;20088;-91
2023/08/18 03:38:01;;;;;;;9.73;6.43;;;;;;;16.62;93.69;101603.03;5033878;28;20029;-92
2023/08/18 03:40:26;;;;;;;7.25;6.00;;;;;;;16.61;93.78;101603.94;5044265;28;20029;-93
2023/08/18 03:42:52;;;;;;;9.88;6.28;;;;;;;16.60;93.95;101589.09;5040077;28;20457;-92
2023/08/18 03:45:17;;;;;;;7.30;6.05;;;;;;;16.61;93.92;101588.19;5053723;28;20082;-93
2023/08/18 03:47:42;;;;;;;8.50;5.97;;;;;;;16.60;93.50;101589.09;5054009;28;20020;-92
2023/08/18 03:50:08;;;;;;;7.72;5.53;;;;;;;16.59;93.82;101582.13;5054786;28;20029;-92
2023/08/18 03:52:33;;;;;;;7.82;6.25;;;;;;;16.59;94.19;101587.38;5053320;28;20040;-93
2023/08/18 03:54:58;;;;;;;8.65;6.07;;;;;;;16.58;94.07;101588.28;5040200;28;20044;-92
2023/08/18 03:57:24;;;;;;;8.30;5.85;;;;;;;16.58;94.05;101583.03;5041717;28;20131;-94
2023/08/18 03:59:49;;;;;;;8.77;6.07;;;;;;;16.57;94.09;101581.34;5039893;28;20469;-93
2023/08/18 04:02:14;;;;;;;8.25;6.00;;;;;;;16.57;94.04;101590.06;5043475;28;20021;-93
2023/08/18 04:04:40;;;;;;;8.10;6.43;;;;;;;16.55;94.13;101581.41;5046283;28;20036;-92
2023/08/18 04:07:05;;;;;;;8.50;5.82;;;;;;;16.54;94.71;101585.81;5049661;28;20372;-93
2023/08/18 04:09:30;;;;;;;9.20;5.85;;;;;;;16.56;94.34;101590.16;5052217;28;20162;-92
2023/08/18 04:11:55;;;;;;;8.15;5.80;;;;;;;16.56;94.58;101590.16;5048934;28;20021;-92
2023/08/18 04:14:21;;;;;;;9.70;6.20;;;;;;;16.56;94.74;101593.63;5050107;28;20056;-92
2023/08/18 04:16:46;;;;;;;7.93;5.88;;;;;;;16.57;94.40;101595.34;5051076;28;20017;-92
2023/08/18 04:19:12;;;;;;;7.82;5.57;;;;;;;16.58;94.81;101594.41;5046325;28;20130;-92
2023/08/18 04:21:37;;;;;;;8.23;5.80;;;;;;;16.59;94.93;101592.63;5052338;28;20021;-92
2023/08/18 04:24:03;;;;;;;8.25;5.95;;;;;;;16.58;94.84;101590.91;5045837;28;20107;-92
2023/08/18 04:26:29;;;;;;;7.75;5.78;;;;;;;16.57;94.79;101584.81;5051544;28;20017;-91
2023/08/18 04:28:54;;;;;;;7.60;6.15;;;;;;;16.57;94.71;101594.50;5046115;28;20021;-92
2023/08/18 04:31:27;;;;;;;8.48;6.35;;;;;;;16.54;94.89;101596.31;5040050;28;20025;-94
2023/08/18 04:33:53;;;;;;;8.63;6.20;;;;;;;16.52;94.75;101595.53;5047355;28;20036;-92
2023/08/18 04:36:18;;;;;;;9.52;6.32;;;;;;;16.52;94.98;101594.66;5035297;28;20025;-93
2023/08/18 04:38:46;;;;;;;9.60;6.57;;;;;;;16.52;95.26;101598.16;5041087;28;20445;-93
2023/08/18 04:41:13;;;;;;;9.57;6.20;;;;;;;16.52;95.36;101598.16;5052027;28;20418;-94
2023/08/18 04:43:39;;;;;;;9.25;6.57;;;;;;;16.50;95.39;101588.59;5049878;28;20388;-93
2023/08/18 04:46:04;;;;;;;9.85;6.75;;;;;;;16.49;95.54;101585.13;5048488;28;20025;-92
2023/08/18 04:48:29;;;;;;;11.15;7.00;;;;;;;16.49;95.62;101581.63;5051047;28;20032;-92
2023/08/18 04:50:55;;;;;;;10.50;7.40;;;;;;;16.49;95.66;101585.13;5038828;28;20108;-93
2023/08/18 04:53:20;;;;;;;10.57;6.65;;;;;;;16.49;96.04;101585.13;5047492;28;20067;-93
2023/08/18 04:55:45;;;;;;;10.27;7.10;;;;;;;16.48;95.78;101583.41;5038949;28;20037;-93
2023/08/18 04:58:13;;;;;;;9.52;7.32;;;;;;;16.50;95.74;101580.72;5044216;28;20025;-93
2023/08/18 05:00:40;;;;;;;10.93;7.45;;;;;;;16.53;96.07;101591.09;5043915;28;20144;-95
2023/08/18 05:03:06;;;;;;;10.85;7.80;;;;;;;16.52;96.09;101587.63;5047738;28;20091;-93
2023/08/18 05:05:33;;;;;;;11.38;7.65;;;;;;;16.53;96.02;101585.84;5045808;28;20021;-94
2023/08/18 05:07:59;;;;;;;12.30;7.63;;;;;;;16.54;96.24;101590.19;5049768;28;20025;-95
2023/08/18 05:10:27;;;;;;;10.93;7.45;;;;;;;16.55;96.13;101594.53;5048822;28;20025;-93
2023/08/18 05:12:52;;;;;;;11.13;7.85;;;;;;;16.56;96.24;101596.25;5042943;28;20079;-92
2023/08/18 05:15:18;;;;;;;13.18;8.25;;;;;;;16.57;95.98;101594.50;5046974;28;20452;-92
2023/08/18 05:17:43;;;;;;;10.82;7.95;;;;;;;16.57;95.80;101597.13;5049123;28;20028;-92
2023/08/18 05:20:11;;;;;;;12.45;8.02;;;;;;;16.55;96.28;101594.53;5046273;28;20020;-92
2023/08/18 05:22:36;;;;;;;10.95;7.43;;;;;;;16.55;96.14;101597.16;5041827;28;20103;-92
2023/08/18 05:25:02;;;;;;;11.38;7.95;;;;;;;16.56;96.37;101585.75;5049711;28;20075;-92
2023/08/18 05:27:27;;;;;;;11.75;8.05;;;;;;;16.57;96.20;101578.72;5049910;28;20541;-91
2023/08/18 05:29:53;;;;;;;12.10;8.30;;;;;;;16.59;96.42;101584.75;5050088;28;20424;-92
2023/08/18 05:32:18;;;;;;;12.55;8.15;;;;;;;16.59;96.38;101582.13;5045741;28;20033;-86
2023/08/18 05:34:43;;;;;;;12.27;8.15;;;;;;;16.59;96.54;101590.88;5075275;28;20024;-91
2023/08/18 05:37:08;;;;;;;12.55;7.88;;;;;;;16.59;96.57;101585.63;5067860;28;20052;-91
2023/08/18 05:39:34;;;;;;;11.77;7.78;;;;;;;16.60;96.48;101583.84;5069836;28;20059;-92
2023/08/18 05:41:59;;;;;;;12.73;8.23;;;;;;;16.60;96.64;101581.22;5052863;28;20071;-93
2023/08/18 05:44:24;;;;;;;13.13;7.60;;;;;;;16.61;96.54;101580.28;5034106;28;20469;-92
2023/08/18 05:46:50;;;;;;;11.23;7.90;;;;;;;16.59;96.70;101571.63;5042516;28;20021;-92
2023/08/18 05:49:15;;;;;;;11.98;8.60;;;;;;;16.58;97.16;101572.53;5042250;28;20521;-93
2023/08/18 05:51:43;;;;;;;13.60;8.90;;;;;;;16.55;96.91;101570.88;5052433;28;20112;-92
2023/08/18 05:54:09;;;;;;;12.65;8.38;;;;;;;16.54;97.20;101570.06;5050356;28;20031;-93
2023/08/18 05:56:34;;;;;;;15.32;8.25;;;;;;;16.56;97.29;101567.34;5043400;28;20076;-92
2023/08/18 05:58:59;;;;;;;12.02;7.88;;;;;;;16.56;97.44;101569.13;5052638;28;20067;-92
2023/08/18 06:01:25;;;;;;;14.02;9.15;;;;;;;16.58;97.54;101567.28;5050561;28;20052;-92
2023/08/18 06:03:50;;;;;;;11.93;8.25;;;;;;;16.57;97.35;101565.59;5051007;28;20039;-93
2023/08/18 06:06:15;;;;;;;11.52;7.82;;;;;;;16.57;97.11;101569.06;5052057;28;20029;-93
2023/08/18 06:08:41;;;;;;;12.40;8.68;;;;;;;16.54;97.59;101564.78;5052345;28;20028;-93
2023/08/18 06:11:07;;;;;;;11.75;8.30;;;;;;;16.55;97.24;101560.38;5048676;28;20048;-91
2023/08/18 06:13:32;;;;;;;13.77;8.50;;;;;;;16.56;97.79;101566.50;5049476;28;20036;-93
2023/08/18 06:16:02;;;;;;;13.00;8.45;;;;;;;16.56;98.32;101575.22;5050576;28;20476;-91
2023/08/18 06:18:28;;;;;;;12.80;8.20;;;;;;;16.58;98.00;101575.16;5040341;28;20476;-91
2023/08/18 06:20:53;;;;;;;14.77;8.77;;;;;;;16.59;98.09;101563.75;5048899;28;20029;-92
2023/08/18 06:23:18;;;;;;;11.88;8.30;;;;;;;16.62;98.16;101571.50;5051056;28;20060;-93
2023/08/18 06:25:43;;;;;;;12.65;8.73;;;;;;;16.65;98.11;101571.38;5050806;28;20192;-91
2023/08/18 06:28:09;;;;;;;12.73;8.63;;;;;;;16.67;98.21;101575.66;5049141;28;20036;-92
2023/08/18 06:30:34;;;;;;;13.20;8.70;;;;;;;16.68;98.24;101574.75;5048739;28;20028;-92
2023/08/18 06:32:59;;;;;;;13.07;8.32;;;;;;;16.68;98.10;101582.63;5062343;28;20040;-93
2023/08/18 06:35:25;;;;;;;12.57;8.38;;;;;;;16.71;98.22;101578.16;5049795;28;20017;-92
2023/08/18 06:37:50;;;;;;;12.25;8.45;;;;;;;16.72;98.21;101572.00;5047976;28;20029;-93
2023/08/18 06:40:18;;;;;;;15.10;8.90;;;;;;;16.73;97.91;101574.59;5049568;28;20040;-92
2023/08/18 06:42:43;;;;;;;13.80;8.57;;;;;;;16.74;98.34;101570.16;5050020;28;20090;-93
2023/08/18 06:45:09;;;;;;;13.55;8.88;;;;;;;16.74;98.52;101571.00;5048768;28;20032;-93
2023/08/18 06:47:34;;;;;;;13.63;8.93;;;;;;;16.74;98.32;101576.25;5051006;28;20033;-94
2023/08/18 06:50:05;;;;;;;14.68;9.02;;;;;;;16.74;98.16;101568.38;5043442;28;20500;-92
2023/08/18 06:52:31;;;;;;;15.63;9.45;;;;;;;16.75;98.32;101567.47;5046999;28;20339;-93
2023/08/18 06:54:58;;;;;;;13.20;9.27;;;;;;;16.78;98.75;101567.34;5038424;28;20503;-92
2023/08/18 06:57:25;;;;;;;13.40;8.90;;;;;;;16.80;98.78;101569.94;5047493;28;20079;-93
2023/08/18 06:59:50;;;;;;;14.68;9.68;;;;;;;16.82;98.64;101573.34;5046389;28;20022;-93
2023/08/18 07:02:18;;;;;;;11.35;7.60;;;;;;;16.83;98.65;101565.41;5043976;28;20031;-93
2023/08/18 07:04:43;;;;;;;12.00;8.20;;;;;;;16.86;98.59;101559.16;5052548;28;20029;-93
2023/08/18 07:07:09;;;;;;;11.63;8.00;;;;;;;16.89;98.42;101559.03;5048351;28;20373;-93
2023/08/18 07:09:36;;;;;;;13.88;8.50;;;;;;;16.92;98.28;101558.91;5049761;28;20064;-94
2023/08/18 07:12:09;;;;;;;12.80;9.02;;;;;;;16.95;98.33;101560.56;5051239;28;20025;-93
2023/08/18 07:14:34;;;;;;;12.73;8.50;;;;;;;16.98;98.67;101557.84;5049266;28;20029;-93
2023/08/18 07:17:10;;;;;;;12.52;8.65;;;;;;;17.01;98.34;101555.09;5050785;28;20025;-94
2023/08/18 07:19:35;;;;;;;11.95;8.07;;;;;;;17.05;98.24;101561.94;5052094;28;20031;-95
2023/08/18 07:22:00;;;;;;;10.93;7.60;;;;;;;17.07;98.24;101556.59;5047145;28;20117;-94
2023/08/18 07:24:26;;;;;;;11.32;8.10;;;;;;;17.11;98.11;101555.56;5050494;28;20032;-93
2023/08/18 07:26:51;;;;;;;13.05;8.57;;;;;;;17.16;98.39;101560.63;5054052;28;20096;-92
2023/08/18 07:29:19;;;;;;;12.43;8.40;;;;;;;17.19;98.03;101555.22;5049024;28;20396;-93
2023/08/18 07:31:44;;;;;;;12.57;8.73;;;;;;;17.20;97.70;101562.19;5051544;28;20052;-89
2023/08/18 07:34:10;;;;;;;14.30;8.85;;;;;;;17.22;97.83;101565.63;5053099;28;20044;-90
2023/08/18 07:36:35;;;;;;;14.45;9.25;;;;;;;17.22;97.94;101563.00;5075939;28;20029;-90
2023/08/18 07:39:00;;;;;;;14.50;9.10;;;;;;;17.23;97.77;101562.06;5064336;28;20037;-90
2023/08/18 07:41:26;;;;;;;12.48;8.48;;;;;;;17.26;97.48;101562.78;5053250;28;20032;-89
2023/08/18 07:43:51;;;;;;;15.20;9.90;;;;;;;17.26;97.89;101567.19;5053037;28;20053;-86
2023/08/18 07:46:17;;;;;;;13.70;8.70;;;;;;;17.28;97.68;101557.47;5058336;28;20024;-88
2023/08/18 07:48:44;;;;;;;13.82;9.23;;;;;;;17.31;97.43;101562.59;5054449;28;20028;-89
2023/08/18 07:51:09;;;;;;;14.57;9.70;;;;;;;17.33;97.83;101565.16;5055875;28;20060;-89
2023/08/18 07:53:34;;;;;;;13.13;8.75;;;;;;;17.36;97.45;101558.00;5050886;28;20545;-89
2023/08/18 07:56:00;;;;;;;12.18;8.55;;;;;;;17.38;97.56;101566.69;5051401;28;20051;-87
2023/08/18 07:58:25;;;;;;;13.00;8.68;;;;;;;17.40;97.36;101559.59;5048757;28;20598;-89
2023/08/18 08:00:51;;;;;;;11.98;8.35;;;;;;;17.45;97.87;101564.63;5055794;28;20162;-88
2023/08/18 08:03:16;;;;;;;13.43;9.48;;;;;;;17.49;97.05;101560.09;5053649;28;20025;-88
2023/08/18 08:05:42;;;;;;;14.38;9.15;;;;;;;17.51;97.49;101566.97;5048071;28;20052;-89
2023/08/18 08:08:07;;;;;;;14.10;9.68;;;;;;;17.54;97.34;101572.13;5052417;28;20707;-90
2023/08/18 08:10:33;;;;;;;15.35;9.90;;;;;;;17.56;97.04;101572.06;5052434;28;20044;-91
2023/08/18 08:12:58;;;;;;;13.25;9.20;;;;;;;17.56;97.07;101574.69;5055194;28;20068;-90
2023/08/18 08:15:23;;;;;;;15.52;10.00;;;;;;;17.55;97.24;101579.09;5052876;28;20052;-90
2023/08/18 08:17:49;;;;;;;14.95;10.07;;;;;;;17.55;97.80;101579.09;5051579;28;20047;-90
2023/08/18 08:20:15;;;;;;;18.35;10.93;;;;;;;17.55;97.17;101583.50;5052822;28;20037;-91
2023/08/18 08:22:41;;;;;;;17.25;10.98;;;;;;;17.57;97.25;101581.66;5051031;28;20036;-90
2023/08/18 08:25:08;;;;;;;15.38;9.90;;;;;;;17.58;97.14;101578.97;5056150;28;20040;-91
2023/08/18 08:27:33;;;;;;;17.45;11.15;;;;;;;17.60;97.08;101581.50;5056499;28;20025;-89
2023/08/18 08:29:59;;;;;;;17.65;11.88;;;;;;;17.62;97.68;101582.31;5051552;28;20105;-90
2023/08/18 08:32:24;;;;;;;16.13;10.50;;;;;;;17.65;97.46;101590.06;5048826;28;21265;-90
2023/08/18 08:34:51;;;;;;;16.15;10.77;;;;;;;17.67;97.17;101580.34;5049890;28;20033;-88
2023/08/18 08:37:17;;;;;;;14.80;10.68;;;;;;;17.70;97.33;101574.94;5045707;28;20065;-89
2023/08/18 08:39:43;;;;;;;17.45;11.75;;;;;;;17.71;96.81;101576.66;5046201;28;20399;-90
2023/08/18 08:42:09;;;;;;;19.08;11.75;;;;;;;17.72;96.98;101583.63;5043755;28;20037;-89
2023/08/18 08:44:34;;;;;;;17.63;11.40;;;;;;;17.71;96.57;101579.28;5046037;28;20120;-89
2023/08/18 08:47:00;;;;;;;17.65;11.85;;;;;;;17.72;97.18;101590.66;5048340;28;20029;-89
2023/08/18 08:49:28;;;;;;;20.35;12.73;;;;;;;17.76;97.60;101592.22;5047586;28;20109;-90
2023/08/18 08:51:57;;;;;;;18.42;11.95;;;;;;;17.78;97.01;101597.41;5047660;28;20033;-89
2023/08/18 08:54:26;;;;;;;18.60;12.32;;;;;;;17.81;97.23;101590.25;5046859;28;20036;-89
2023/08/18 08:56:52;;;;;;;17.20;11.43;;;;;;;17.84;96.42;101595.41;5046133;28;20045;-91
2023/08/18 08:59:18;;;;;;;17.50;11.43;;;;;;;17.86;96.92;101597.94;5063638;28;20075;-89
2023/08/18 09:01:43;;;;;;;22.33;12.63;;;;;;;17.89;96.40;101593.38;5045183;28;20096;-89
2023/08/18 09:04:09;;;;;;;18.20;11.20;;;;;;;17.92;96.69;101584.53;5047045;28;20032;-90
2023/08/18 09:06:35;;;;;;;17.63;11.40;;;;;;;17.97;96.45;101584.31;5044675;28;20508;-92
2023/08/18 09:09:00;;;;;;;18.27;12.02;;;;;;;18.02;96.56;101584.97;5046432;28;20487;-90
2023/08/18 09:11:59;;;;;;;19.25;12.65;;;;;;;18.08;95.73;101587.34;5042499;28;20059;-91
2023/08/18 09:14:26;;;;;;;18.40;11.85;;;;;;;18.11;96.79;101597.72;5010516;28;20049;-91
2023/08/18 09:16:52;;;;;;;18.02;11.65;;;;;;;18.16;95.77;101597.50;5048444;28;20041;-89
2023/08/18 09:19:18;;;;;;;18.27;11.85;;;;;;;18.21;96.23;101608.69;5045317;28;20033;-88
2023/08/18 09:21:43;;;;;;;18.65;12.50;;;;;;;18.26;95.93;101606.72;5045106;28;20025;-89
2023/08/18 09:24:09;;;;;;;17.55;12.00;;;;;;;18.31;96.42;101599.44;5045051;28;20057;-89
2023/08/18 09:26:35;;;;;;;15.20;10.73;;;;;;;18.37;95.40;101600.09;5044667;28;20031;-89
2023/08/18 09:29:00;;;;;;;14.35;10.45;;;;;;;18.41;94.87;101588.50;5050579;28;20020;-88
2023/08/18 09:31:26;;;;;;;15.57;10.02;;;;;;;18.44;94.94;101588.34;5046320;28;20037;-89
2023/08/18 09:33:51;;;;;;;14.77;10.55;;;;;;;18.46;94.53;101586.47;5047338;28;20105;-89
2023/08/18 09:36:18;;;;;;;14.15;9.65;;;;;;;18.50;94.37;101588.03;5047785;28;20033;-91
2023/08/18 09:38:44;;;;;;;13.77;9.80;;;;;;;18.53;94.39;101577.38;5049988;28;20083;-90
2023/08/18 09:41:11;;;;;;;12.50;9.05;;;;;;;18.59;94.53;101579.72;5046249;28;20074;-90
2023/08/18 09:43:41;;;;;;;12.68;9.57;;;;;;;18.66;94.60;101581.13;5046131;28;20033;-90
2023/08/18 09:46:08;;;;;;;12.10;9.02;;;;;;;18.74;95.28;101580.75;5045424;28;20033;-90
2023/08/18 09:48:35;;;;;;;12.07;8.93;;;;;;;18.77;92.78;101570.06;5042570;28;20025;-90
2023/08/18 09:51:01;;;;;;;13.15;9.55;;;;;;;18.83;93.07;101568.06;5044383;28;20056;-89
2023/08/18 09:53:31;;;;;;;13.60;9.45;;;;;;;18.90;93.22;101569.44;5048036;28;20032;-88
2023/08/18 09:56:04;;;;;;;11.82;9.40;;;;;;;18.96;92.26;101570.03;5044863;28;20109;-92
2023/08/18 09:58:43;;;;;;;12.95;9.25;;;;;;;19.01;92.36;101567.19;5048907;28;20156;-89
2023/08/18 10:01:10;;;;;;;13.50;9.80;;;;;;;19.03;91.86;101572.38;5044428;28;20341;-91
2023/08/18 10:03:38;;;;;;;12.38;8.88;;;;;;;19.09;91.81;101569.44;5044953;28;20189;-92
2023/08/18 10:06:06;;;;;;;12.23;9.40;;;;;;;19.16;92.21;101567.34;5046619;28;20032;-91
2023/08/18 10:08:32;;;;;;;11.95;8.93;;;;;;;19.22;91.70;101569.66;5042160;28;20348;-90
2023/08/18 10:10:59;;;;;;;10.10;7.63;;;;;;;19.26;91.04;101561.53;5046668;28;20167;-89
2023/08/18 10:13:25;;;;;;;11.60;8.82;;;;;;;19.28;90.87;101569.34;5048344;28;21256;-91
2023/08/18 10:15:52;;;;;;;12.32;9.02;;;;;;;19.33;91.11;101563.81;5054502;28;20032;-88
2023/08/18 10:18:17;;;;;;;10.63;7.57;;;;;;;19.38;90.66;101570.59;5067519;28;20045;-89
2023/08/18 10:20:53;;;;;;;11.43;8.52;;;;;;;19.44;91.04;101564.16;5059544;28;20083;-89
2023/08/18 10:23:22;;;;;;;10.65;8.48;;;;;;;19.49;90.01;101559.47;5052670;28;20488;-90
2023/08/18 10:25:52;;;;;;;13.32;9.10;;;;;;;19.52;89.64;101561.94;5049644;28;20066;-90
2023/08/18 10:28:19;;;;;;;12.00;8.65;;;;;;;19.55;89.17;101556.50;5047451;28;21385;-89
2023/08/18 10:30:56;;;;;;;11.65;7.95;;;;;;;19.59;88.76;101557.19;5045198;28;20037;-90
2023/08/18 10:33:52;;;;;;;9.93;7.85;;;;;;;19.65;89.57;101550.72;5043708;28;20510;-90
2023/08/18 10:36:24;;;;;;;11.38;9.32;;;;;;;19.70;89.01;101549.59;5046703;28;20025;-88
2023/08/18 10:38:52;;;;;;;11.95;8.70;;;;;;;19.77;89.47;101544.81;5046233;28;20029;-90
2023/08/18 10:41:25;;;;;;;10.40;8.05;;;;;;;19.82;88.71;101542.78;5049936;28;20132;-90
2023/08/18 10:43:55;;;;;;;12.73;9.18;;;;;;;19.90;88.70;101541.53;5052475;28;20036;-91
2023/08/18 10:46:24;;;;;;;10.80;8.18;;;;;;;19.98;88.62;101544.63;5048916;28;20479;-90
2023/08/18 10:48:49;;;;;;;10.68;8.23;;;;;;;20.01;87.26;101540.03;5051110;28;20066;-89
2023/08/18 10:51:14;;;;;;;12.68;9.63;;;;;;;20.08;88.91;101537.03;5048779;28;20401;-89
2023/08/18 10:53:41;;;;;;;12.40;9.38;;;;;;;20.13;88.20;101535.00;5049277;28;20024;-91
2023/08/18 10:56:06;;;;;;;12.07;9.07;;;;;;;20.20;87.69;101532.88;5046872;28;20543;-89
2023/08/18 10:58:34;;;;;;;10.57;8.07;;;;;;;20.23;86.99;101524.78;5048991;28;20108;-92
2023/08/18 11:01:00;;;;;;;12.00;8.50;;;;;;;20.30;86.97;101526.16;5049581;28;20123;-90
2023/08/18 11:03:25;;;;;;;12.68;9.32;;;;;;;20.36;87.18;101519.66;5047331;28;20099;-89
2023/08/18 11:05:51;;;;;;;12.32;9.73;;;;;;;20.41;87.81;101514.97;5046279;28;20048;-90
2023/08/18 11:08:17;;;;;;;13.85;10.23;;;;;;;20.49;89.59;101503.97;5047499;28;20037;-90
2023/08/18 11:10:43;;;;;;;11.65;9.68;;;;;;;20.57;88.71;101509.66;5050559;28;20052;-90
2023/08/18 11:13:24;;;;;;;12.18;9.15;;;;;;;20.64;86.71;101508.38;5048037;28;20049;-90
2023/08/18 11:15:52;;;;;;;;;;;;;;;20.72;88.05;101506.13;5045271;28;20494;-89